Time;durP1;ratioP1;P1;durP2;ratioP2;P2;SDS_P1;SDS_P2;PMS_P1;PMS_P2;Temp;Humidity;BMP_temperature;BMP_pressure;BME280_temperature;BME280_humidity;BME280_pressure;Samples;Min_cycle;Max_cycle;Signal;HPM_P1;HPM_P2
2021/04/15 10:58:36;;;;;;;17.05;12.40;;;;;;;15.00;47.75;99004.80;1791216;78;22903;-72
2021/04/15 11:01:25;;;;;;;20.08;12.37;;;;;;;15.02;48.01;99005.81;1789843;80;20931;-69
2021/04/15 11:04:17;;;;;;;22.52;13.75;;;;;;;15.11;48.03;99002.27;1834218;77;22690;-73
2021/04/15 11:07:36;;;;;;;16.73;11.97;;;;;;;15.06;47.64;99007.50;1801827;79;20908;-71
2021/04/15 11:10:29;;;;;;;15.30;12.60;;;;;;;15.00;47.34;99003.98;1803435;79;21562;-72
2021/04/15 11:13:20;;;;;;;15.68;12.50;;;;;;;14.94;47.34;99007.64;1803438;79;21011;-70
2021/04/15 11:15:58;;;;;;;20.85;13.35;;;;;;;14.90;47.43;98999.81;1803434;79;21094;-70
2021/04/15 11:18:36;;;;;;;19.20;12.43;;;;;;;14.83;47.76;99002.66;1715103;82;21159;-71
2021/04/15 11:21:26;;;;;;;20.10;14.23;;;;;;;14.80;47.82;99000.61;1736654;80;21586;-71
2021/04/15 11:23:59;;;;;;;21.23;11.33;;;;;;;14.78;47.96;99001.52;1746656;82;21793;-70
2021/04/15 11:26:49;;;;;;;22.07;11.97;;;;;;;14.71;48.71;98995.80;1715465;82;21021;-73
2021/04/15 11:29:50;;;;;;;25.23;12.95;;;;;;;14.60;48.95;99001.91;1702007;83;21108;-70
2021/04/15 11:32:50;;;;;;;16.32;10.55;;;;;;;14.38;49.50;99001.97;1763680;79;21047;-71
2021/04/15 11:35:21;;;;;;;16.62;12.05;;;;;;;14.14;50.45;99001.59;1772323;81;20985;-70
2021/04/15 11:38:24;;;;;;;15.98;11.73;;;;;;;13.99;51.06;99008.13;1761478;81;21055;-69
2021/04/15 11:42:02;;;;;;;20.68;13.45;;;;;;;13.90;51.41;99012.47;1771364;81;21027;-70
2021/04/15 11:45:08;;;;;;;19.48;12.73;;;;;;;13.82;51.81;99005.92;1772047;80;21170;-69
2021/04/15 11:47:37;;;;;;;22.52;12.15;;;;;;;13.82;51.94;99006.50;1725106;83;21490;-69
2021/04/15 11:50:20;;;;;;;17.98;12.55;;;;;;;13.85;52.15;99000.27;1756834;81;21069;-71
2021/04/15 11:52:53;;;;;;;22.55;13.68;;;;;;;13.85;52.31;99007.98;1726519;83;21192;-72
2021/04/15 11:55:51;;;;;;;21.10;13.70;;;;;;;13.87;52.40;99007.63;1756947;81;21701;-71
2021/04/15 11:58:32;;;;;;;21.87;13.62;;;;;;;13.87;52.28;99008.44;1727057;83;21086;-70
2021/04/15 12:01:02;;;;;;;18.77;13.80;;;;;;;13.84;52.50;99015.27;1757026;81;21565;-70
2021/04/15 12:03:35;;;;;;;31.75;15.30;;;;;;;13.83;52.37;99011.70;1728925;81;21053;-71
2021/04/15 12:06:53;;;;;;;23.52;14.55;;;;;;;13.83;52.69;99007.55;1722723;81;21117;-71
2021/04/15 12:09:25;;;;;;;28.35;15.98;;;;;;;13.80;53.10;99008.23;1756582;81;21437;-70
2021/04/15 12:12:45;;;;;;;23.10;16.30;;;;;;;13.78;53.34;99006.42;1757119;81;21760;-71
2021/04/15 12:15:16;;;;;;;25.57;17.00;;;;;;;13.75;53.66;99002.95;1761962;81;21109;-71
2021/04/15 12:18:03;;;;;;;26.00;17.37;;;;;;;13.70;53.60;99005.41;1731106;81;21597;-70
2021/04/15 12:20:57;;;;;;;25.20;17.60;;;;;;;13.68;54.18;99006.94;1762231;81;21610;-69
2021/04/15 12:23:57;;;;;;;23.45;17.37;;;;;;;13.66;54.74;99005.09;1761882;81;21598;-72
2021/04/15 12:27:08;;;;;;;24.95;15.48;;;;;;;13.60;54.62;98999.00;1761844;81;21607;-70
2021/04/15 12:29:54;;;;;;;22.25;16.05;;;;;;;13.58;54.91;99003.51;1761853;81;21149;-72
2021/04/15 12:32:56;;;;;;;25.48;15.63;;;;;;;13.60;54.71;99003.15;1733567;81;21455;-68
2021/04/15 12:35:46;;;;;;;22.65;16.30;;;;;;;13.62;54.48;98994.73;1761944;81;21185;-71
2021/04/15 12:38:28;;;;;;;24.35;17.27;;;;;;;13.69;54.20;98989.16;1761900;81;21479;-71
2021/04/15 12:41:05;;;;;;;34.38;17.75;;;;;;;13.72;54.64;98989.83;1761831;81;21149;-72
2021/04/15 12:44:04;;;;;;;20.32;15.35;;;;;;;13.72;54.57;98989.26;1761729;80;21134;-70
2021/04/15 12:46:34;;;;;;;24.77;16.67;;;;;;;13.71;54.83;98986.84;1773560;79;21447;-72
2021/04/15 12:49:06;;;;;;;27.25;16.50;;;;;;;13.75;54.53;98986.34;1774335;80;22134;-70
2021/04/15 12:51:42;;;;;;;23.42;15.85;;;;;;;13.80;54.10;98986.09;1729716;82;21072;-71
2021/04/15 12:54:24;;;;;;;20.72;15.30;;;;;;;13.90;53.87;98973.70;1793128;79;22706;-73
2021/04/15 12:57:14;;;;;;;22.62;16.37;;;;;;;13.90;53.39;98981.20;1757628;81;21598;-70
2021/04/15 12:59:47;;;;;;;21.90;15.28;;;;;;;13.95;52.79;98974.02;1695348;84;21382;-69
2021/04/15 13:02:51;;;;;;;22.45;15.30;;;;;;;14.00;53.07;98975.92;1720892;83;21006;-68
2021/04/15 13:05:39;;;;;;;22.48;15.30;;;;;;;14.06;52.52;98970.93;1724180;83;21035;-71
2021/04/15 13:08:48;;;;;;;25.68;16.85;;;;;;;14.12;52.61;98975.63;1715739;81;21129;-71
2021/04/15 13:11:24;;;;;;;20.48;14.55;;;;;;;14.21;52.80;98974.07;1697919;83;20943;-72
2021/04/15 13:14:01;;;;;;;25.80;17.57;;;;;;;14.22;52.09;98968.74;1693709;84;21010;-74
2021/04/15 13:16:41;;;;;;;27.22;16.77;;;;;;;14.23;52.86;98971.16;1738496;82;20986;-70
2021/04/15 13:19:27;;;;;;;24.70;16.73;;;;;;;14.21;53.21;98972.09;1698449;84;21089;-71
2021/04/15 13:22:02;;;;;;;106.32;23.22;;;;;;;14.27;53.18;98969.86;1727073;83;21127;-70
2021/04/15 13:25:42;;;;;;;22.73;15.83;;;;;;;14.38;53.19;98964.55;1727014;83;21031;-73
2021/04/15 13:28:12;;;;;;;24.82;17.05;;;;;;;14.52;53.57;98961.92;1726983;83;21391;-72
2021/04/15 13:30:46;;;;;;;66.25;19.35;;;;;;;14.65;53.14;98963.41;1727046;83;21020;-71
2021/04/15 13:34:02;;;;;;;24.72;16.12;;;;;;;14.70;52.35;98960.36;1724064;83;21085;-74
2021/04/15 13:36:35;;;;;;;26.70;15.72;;;;;;;14.75;52.09;98962.05;1727255;83;21139;-71
2021/04/15 13:40:27;;;;;;;29.02;16.20;;;;;;;14.69;51.61;98955.97;1692741;83;21089;-70
2021/04/15 13:43:36;;;;;;;24.52;16.00;;;;;;;14.66;52.24;98962.24;1671987;83;21549;-70
2021/04/15 13:46:44;;;;;;;19.37;14.23;;;;;;;14.79;51.54;98958.75;1678052;84;21236;-73
2021/04/15 13:49:20;;;;;;;23.50;14.38;;;;;;;14.89;50.71;98962.16;1695392;84;21033;-71
2021/04/15 13:51:52;;;;;;;23.15;16.00;;;;;;;14.92;49.82;98959.47;1711496;83;21079;-70
2021/04/15 13:54:33;;;;;;;22.40;15.28;;;;;;;14.79;49.90;98954.59;1684430;83;21244;-71
2021/04/15 13:57:09;;;;;;;24.30;15.48;;;;;;;14.76;50.57;98961.44;1706346;82;21204;-73
2021/04/15 13:59:49;;;;;;;21.05;15.38;;;;;;;14.82;50.19;98958.66;1708773;84;21043;-71
2021/04/15 14:02:24;;;;;;;15.08;11.90;;;;;;;14.85;49.88;98966.24;1737837;82;21259;-70
2021/04/15 14:04:57;;;;;;;21.68;13.90;;;;;;;14.81;50.19;98959.23;1744112;82;21130;-71
2021/04/15 14:07:44;;;;;;;23.52;16.23;;;;;;;14.84;49.85;98966.03;1708320;84;21114;-72
2021/04/15 14:10:27;;;;;;;31.57;16.07;;;;;;;14.80;49.62;98960.41;1744029;82;21378;-71
2021/04/15 14:13:19;;;;;;;19.35;14.28;;;;;;;14.75;50.28;98954.30;1743414;82;21082;-71
2021/04/15 14:15:53;;;;;;;19.82;13.93;;;;;;;14.64;50.70;98959.02;1744027;82;20967;-73
2021/04/15 14:18:33;;;;;;;23.27;15.13;;;;;;;14.58;50.99;98953.55;1744089;82;21558;-71
2021/04/15 14:21:25;;;;;;;20.72;14.53;;;;;;;14.45;51.00;98955.03;1744032;82;21125;-71
2021/04/15 14:24:05;;;;;;;21.02;14.98;;;;;;;14.30;51.53;98958.05;1723333;82;21165;-71
2021/04/15 14:26:49;;;;;;;20.32;14.95;;;;;;;14.21;51.70;98964.37;1708292;84;21562;-70
2021/04/15 14:29:26;;;;;;;23.57;15.25;;;;;;;14.12;51.80;98963.95;1744095;82;20972;-71
2021/04/15 14:32:22;;;;;;;22.55;14.10;;;;;;;14.06;51.89;98964.58;1743968;82;21515;-69
2021/04/15 14:35:24;;;;;;;24.25;15.65;;;;;;;13.97;52.33;98960.62;1707478;84;21641;-70
2021/04/15 14:37:51;;;;;;;20.72;10.75;;;;;;;13.92;52.65;98967.81;1717646;82;21154;-71
2021/04/15 14:40:34;;;;;;;26.55;11.08;;;;;;;13.82;53.86;98960.24;1743936;82;21046;-73
2021/04/15 14:43:19;;;;;;;17.32;10.82;;;;;;;13.67;54.76;98967.37;1743615;82;21336;-71
2021/04/15 14:45:53;;;;;;;24.85;11.35;;;;;;;13.52;55.23;98963.41;1708157;83;21125;-71
2021/04/15 14:48:32;;;;;;;21.97;11.18;;;;;;;13.39;55.39;98960.67;1743905;82;21550;-71
2021/04/15 14:51:06;;;;;;;13.48;9.28;;;;;;;13.26;55.62;98964.64;1688355;84;21380;-71
2021/04/15 14:53:35;;;;;;;12.90;8.88;;;;;;;13.08;56.28;98967.72;1728791;81;21526;-70
2021/04/15 14:56:22;;;;;;;16.45;9.75;;;;;;;12.84;56.65;98970.78;1746849;81;21239;-71
2021/04/15 14:59:06;;;;;;;12.37;8.85;;;;;;;12.67;57.05;98974.61;1747741;81;21247;-70
2021/04/15 15:04:35;;;;;;;11.10;8.18;;;;;;;12.31;58.08;98968.76;1820003;77;22814;-72
2021/04/15 15:07:04;;;;;;;13.88;8.83;;;;;;;12.17;58.17;98975.43;1756475;81;21037;-72
2021/04/15 15:09:36;;;;;;;16.37;9.55;;;;;;;12.10;58.46;98972.98;1766155;81;21205;-71
2021/04/15 15:12:07;;;;;;;15.98;10.28;;;;;;;12.05;58.53;98970.67;1715729;81;21574;-70
2021/04/15 15:15:46;;;;;;;18.67;12.65;;;;;;;12.05;58.76;98970.67;1739126;81;21035;-72
2021/04/15 15:18:23;;;;;;;22.90;14.10;;;;;;;12.08;58.90;98973.30;1737263;81;21037;-70
2021/04/15 15:20:55;;;;;;;23.62;13.80;;;;;;;12.09;59.13;98971.39;1756225;81;21142;-73
2021/04/15 15:23:41;;;;;;;20.90;11.85;;;;;;;12.10;59.06;98973.80;1735999;81;21034;-73
2021/04/15 15:26:25;;;;;;;17.27;12.33;;;;;;;12.10;58.58;98966.09;1717937;82;21153;-71
2021/04/15 15:29:00;;;;;;;26.15;12.15;;;;;;;12.08;58.57;98972.52;1735375;82;21030;-70
2021/04/15 15:31:38;;;;;;;19.62;13.90;;;;;;;12.05;58.83;98974.81;1735769;82;21174;-69
2021/04/15 15:34:48;;;;;;;;;;;;;;;12.08;58.96;98975.28;1737297;82;21077;-73
2021/04/15 15:37:37;;;;;;;43.23;21.55;;;;;;;12.10;58.87;98983.47;1732935;82;20769;-73
2021/04/15 15:40:37;;;;;;;35.95;20.70;;;;;;;12.11;59.11;98982.91;1726342;83;21083;-69
2021/04/15 15:43:21;;;;;;;39.63;22.32;;;;;;;12.11;59.30;98985.06;1735559;82;22301;-73
2021/04/15 15:46:01;;;;;;;35.05;20.57;;;;;;;12.11;59.38;98983.69;1725409;83;21164;-72
2021/04/15 15:48:52;;;;;;;27.55;14.33;;;;;;;12.11;59.51;98985.66;1704888;84;21609;-71
2021/04/15 15:51:55;;;;;;;33.30;15.55;;;;;;;12.04;61.34;98982.84;1724724;83;21535;-69
2021/04/15 15:54:47;;;;;;;14.87;10.25;;;;;;;11.87;63.73;98984.45;1695652;84;21570;-71
2021/04/15 15:57:29;;;;;;;11.83;8.80;;;;;;;11.63;64.53;98980.48;1704744;84;21570;-73
2021/04/15 16:00:11;;;;;;;13.55;9.63;;;;;;;11.38;65.53;98990.84;1704806;84;21124;-71
2021/04/15 16:02:45;;;;;;;18.12;10.78;;;;;;;11.18;66.46;98984.20;1723521;83;21584;-71
2021/04/15 16:05:30;;;;;;;15.60;10.88;;;;;;;11.07;66.94;98975.55;1877206;76;22736;-75
2021/04/15 16:08:18;;;;;;;16.40;11.90;;;;;;;11.01;67.25;98976.88;1813920;79;21114;-72
2021/04/15 16:10:47;;;;;;;15.55;10.25;;;;;;;10.99;68.11;98976.40;1804327;79;21352;-70
2021/04/15 16:13:32;;;;;;;17.87;9.90;;;;;;;10.83;68.81;98979.19;1807887;79;21013;-72
2021/04/15 16:16:10;;;;;;;13.55;9.50;;;;;;;10.71;69.22;98981.30;1733759;82;20961;-71
2021/04/15 16:18:44;;;;;;;14.58;9.45;;;;;;;10.62;69.58;98980.55;1743137;81;21067;-72
2021/04/15 16:21:23;;;;;;;13.58;10.00;;;;;;;10.58;69.94;98982.35;1743240;81;21559;-71
2021/04/15 16:24:28;;;;;;;16.42;11.18;;;;;;;10.55;69.94;98985.22;1711973;81;21559;-70
2021/04/15 16:27:02;;;;;;;20.65;11.35;;;;;;;10.51;70.19;98982.09;1741676;82;21563;-74
2021/04/15 16:29:30;;;;;;;17.82;11.90;;;;;;;10.45;70.76;98982.81;1760109;80;21579;-70
2021/04/15 16:31:59;;;;;;;15.60;11.57;;;;;;;10.39;71.23;98982.18;1773798;80;21126;-70
2021/04/15 16:34:40;;;;;;;13.60;10.25;;;;;;;10.35;71.48;98983.41;1738569;82;21157;-71
2021/04/15 16:37:21;;;;;;;21.25;11.70;;;;;;;10.32;71.49;98985.45;1741559;81;21169;-69
2021/04/15 16:40:01;;;;;;;21.23;12.55;;;;;;;10.34;72.05;98986.50;1704546;81;21558;-69
2021/04/15 16:43:06;;;;;;;26.25;16.75;;;;;;;10.29;72.31;98989.44;1693091;83;21200;-73
2021/04/15 16:45:39;;;;;;;24.15;15.83;;;;;;;10.26;72.64;98992.86;1690669;83;21598;-71
2021/04/15 16:48:16;;;;;;;27.93;16.42;;;;;;;10.23;72.91;98988.83;1675151;84;21194;-69
2021/04/15 16:50:54;;;;;;;48.48;29.02;;;;;;;10.20;73.03;98991.66;1692242;84;21350;-71
2021/04/15 16:53:25;;;;;;;34.98;20.72;;;;;;;10.14;73.25;98996.30;1689600;84;21586;-72
2021/04/15 16:55:55;;;;;;;20.50;14.38;;;;;;;10.09;73.60;99000.88;1683972;84;21213;-72
2021/04/15 16:59:22;;;;;;;21.45;13.10;;;;;;;10.06;73.97;99005.66;1732927;82;21233;-70
2021/04/15 17:02:06;;;;;;;21.55;13.72;;;;;;;9.99;74.07;99006.73;1735785;82;21137;-72
2021/04/15 17:04:37;;;;;;;18.48;12.23;;;;;;;9.97;74.21;99010.37;1744161;81;21303;-70
2021/04/15 17:07:07;;;;;;;24.85;14.23;;;;;;;9.97;74.33;99011.75;1750891;81;21130;-70
2021/04/15 17:09:41;;;;;;;19.12;12.82;;;;;;;9.96;74.50;99009.55;1747662;81;21200;-69
2021/04/15 17:20:06;;;;;;;19.92;13.10;;;;;;;9.88;74.77;99031.63;1746402;81;21200;-72
2021/04/15 17:26:30;;;;;;;22.52;13.50;;;;;;;9.81;74.93;99033.50;1862037;76;22794;-73
2021/04/15 17:28:59;;;;;;;23.05;14.23;;;;;;;9.78;74.98;99035.50;1829328;77;21110;-74
2021/04/15 17:31:28;;;;;;;20.85;13.90;;;;;;;9.78;74.73;99045.12;1818885;78;21181;-73
2021/04/15 17:33:57;;;;;;;18.85;12.82;;;;;;;9.76;74.57;99048.80;1778457;80;21122;-73
2021/04/15 17:36:25;;;;;;;21.50;12.43;;;;;;;9.72;74.50;99047.27;1751166;81;21702;-72
2021/04/15 17:38:53;;;;;;;20.17;13.88;;;;;;;9.69;74.58;99047.92;1756111;80;21142;-73
2021/04/15 17:41:20;;;;;;;28.30;15.25;;;;;;;9.67;74.66;99050.97;1832738;77;20983;-74
2021/04/15 17:43:48;;;;;;;36.50;18.40;;;;;;;9.69;74.71;99049.30;1833819;77;21922;-73
2021/04/15 17:46:17;;;;;;;26.82;13.60;;;;;;;9.74;74.60;99049.13;1821426;78;21074;-73
2021/04/15 17:48:46;;;;;;;18.20;11.65;;;;;;;9.77;74.32;99049.84;1832323;77;20984;-74
2021/04/15 17:51:20;;;;;;;16.20;10.72;;;;;;;9.73;74.26;99055.19;1828746;77;21588;-72
2021/04/15 17:53:48;;;;;;;16.40;10.32;;;;;;;9.68;74.34;99055.36;1825478;77;21066;-74
2021/04/15 17:56:20;;;;;;;17.80;10.38;;;;;;;9.65;74.46;99064.27;1828998;77;22153;-74
2021/04/15 17:58:49;;;;;;;14.13;10.23;;;;;;;9.63;74.61;99067.90;1823016;77;21367;-72
2021/04/15 18:01:17;;;;;;;19.15;11.08;;;;;;;9.57;74.69;99058.99;1818906;77;21082;-72
2021/04/15 18:03:45;;;;;;;15.23;10.60;;;;;;;9.55;74.84;99063.21;1819994;77;21129;-73
2021/04/15 18:06:16;;;;;;;17.62;10.95;;;;;;;9.51;74.99;99067.17;1823732;77;21082;-73
2021/04/15 18:08:44;;;;;;;15.32;9.88;;;;;;;9.52;75.12;99072.12;1820329;77;21464;-72
2021/04/15 18:11:13;;;;;;;17.85;11.68;;;;;;;9.47;75.19;99064.81;1825767;77;21144;-73
2021/04/15 18:13:42;;;;;;;21.82;13.45;;;;;;;9.46;75.30;99068.16;1817519;78;21114;-73
2021/04/15 18:16:11;;;;;;;19.67;12.43;;;;;;;9.47;75.35;99061.51;1825043;77;21170;-75
2021/04/15 18:18:41;;;;;;;18.98;12.60;;;;;;;9.47;75.40;99059.31;1818778;78;21538;-73
2021/04/15 18:21:15;;;;;;;24.60;14.13;;;;;;;9.52;75.37;99067.41;1822839;77;21353;-74
2021/04/15 18:23:43;;;;;;;26.52;15.23;;;;;;;9.55;75.20;99065.97;1827666;77;21125;-73
2021/04/15 18:26:11;;;;;;;30.48;16.57;;;;;;;9.57;75.11;99063.12;1823946;77;21137;-74
2021/04/15 18:28:38;;;;;;;37.08;18.23;;;;;;;9.59;74.99;99066.92;1828252;77;21109;-72
2021/04/15 18:31:08;;;;;;;23.95;14.18;;;;;;;9.59;74.93;99065.55;1825628;77;21101;-74
2021/04/15 18:33:38;;;;;;;26.60;13.08;;;;;;;9.54;74.84;99065.70;1827392;77;21800;-74
2021/04/15 18:36:08;;;;;;;17.87;12.03;;;;;;;9.50;74.88;99058.11;1823858;77;21142;-75
2021/04/15 18:38:38;;;;;;;19.77;11.90;;;;;;;9.51;74.80;99067.17;1820217;77;21082;-75
2021/04/15 18:41:12;;;;;;;17.42;11.30;;;;;;;9.46;74.80;99059.91;1818055;77;21169;-74
2021/04/15 18:43:39;;;;;;;14.43;9.65;;;;;;;9.46;74.88;99057.70;1816325;77;21113;-74
2021/04/15 18:46:08;;;;;;;13.98;9.88;;;;;;;9.46;74.92;99055.78;1819719;77;21193;-74
2021/04/15 18:48:38;;;;;;;15.98;9.90;;;;;;;9.46;74.96;99060.45;1827016;77;21097;-74
2021/04/15 18:51:06;;;;;;;15.03;9.50;;;;;;;9.43;75.01;99055.61;1823793;77;21523;-75
2021/04/15 18:53:35;;;;;;;14.38;10.53;;;;;;;9.41;75.21;99053.19;1817341;76;21117;-74
2021/04/15 18:56:02;;;;;;;17.50;11.00;;;;;;;9.41;75.30;99051.81;1815832;77;21149;-74
2021/04/15 18:58:31;;;;;;;14.23;10.58;;;;;;;9.37;75.35;99046.70;1816401;77;21320;-74
2021/04/15 19:01:03;;;;;;;18.85;10.53;;;;;;;9.37;75.47;99048.08;1815953;77;21413;-74
2021/04/15 19:03:30;;;;;;;18.45;10.93;;;;;;;9.35;75.60;99047.03;1815858;78;21629;-74
2021/04/15 19:05:58;;;;;;;16.50;10.95;;;;;;;9.36;75.74;99050.60;1816981;78;21034;-74
2021/04/15 19:08:29;;;;;;;20.08;10.82;;;;;;;9.41;75.78;99051.81;1824651;77;21191;-74
2021/04/15 19:10:59;;;;;;;22.52;12.25;;;;;;;9.44;75.74;99047.59;1828782;77;21563;-74
2021/04/15 19:13:28;;;;;;;17.77;11.45;;;;;;;9.46;75.81;99046.71;1839941;77;21082;-74
2021/04/15 19:15:59;;;;;;;18.67;12.23;;;;;;;9.48;75.85;99046.61;1816457;77;21094;-74
2021/04/15 19:18:48;;;;;;;20.45;12.30;;;;;;;9.49;75.91;99047.44;1817989;77;21110;-75
2021/04/15 19:21:20;;;;;;;22.05;13.55;;;;;;;9.50;75.93;99044.94;1670219;84;21156;-72
2021/04/15 19:24:12;;;;;;;16.67;12.15;;;;;;;9.47;76.07;99044.19;1675001;84;21189;-73
2021/04/15 19:30:44;;;;;;;21.60;11.03;;;;;;;9.35;76.49;99039.34;1670249;85;21573;-72
2021/04/15 19:37:09;;;;;;;17.35;11.05;;;;;;;9.27;77.13;99031.91;1697675;84;21212;-72
2021/04/15 19:47:26;;;;;;;23.02;11.85;;;;;;;9.11;78.00;99021.41;1628349;87;21722;-73
2021/04/15 20:00:49;;;;;;;21.90;12.65;;;;;;;9.00;79.00;99018.97;1681757;83;28508;-71
2021/04/15 20:06:54;;;;;;;16.93;11.22;;;;;;;8.97;79.37;99017.43;1678399;83;21184;-70
2021/04/15 20:13:03;;;;;;;21.30;12.18;;;;;;;9.05;79.41;99017.19;1679047;83;21173;-72
2021/04/15 20:33:11;;;;;;;17.75;11.50;;;;;;;9.12;79.30;99006.53;1658841;86;21267;-72
2021/04/15 20:45:43;;;;;;;33.18;17.02;;;;;;;9.05;79.38;99000.14;1705650;82;21139;-72
2021/04/15 20:55:28;;;;;;;33.45;20.27;;;;;;;9.07;79.67;98999.26;1741803;82;21119;-73
2021/04/15 21:01:52;;;;;;;33.60;17.98;;;;;;;9.06;79.58;98997.63;1667551;85;21822;-71
2021/04/15 21:04:23;;;;;;;28.60;16.90;;;;;;;9.01;79.79;98996.41;1609393;87;21624;-72
2021/04/15 21:06:53;;;;;;;34.83;19.55;;;;;;;8.96;80.12;98989.14;1663399;85;21242;-72
2021/04/15 21:09:25;;;;;;;34.23;19.15;;;;;;;8.93;80.51;98993.91;1642875;85;21224;-71
2021/04/15 21:12:35;;;;;;;26.62;15.10;;;;;;;8.95;80.73;98990.83;1634654;87;21208;-71
2021/04/15 21:15:18;;;;;;;21.37;13.80;;;;;;;8.98;80.72;98992.94;1644470;85;22178;-72
2021/04/15 21:17:47;;;;;;;21.30;13.70;;;;;;;8.96;81.16;99002.06;1642544;85;21278;-72
2021/04/15 21:20:22;;;;;;;20.80;13.68;;;;;;;8.86;81.35;99001.25;1634956;87;21276;-73
2021/04/15 21:23:11;;;;;;;19.23;12.07;;;;;;;8.81;81.61;98999.22;1644320;85;21666;-70
2021/04/15 21:26:39;;;;;;;18.48;11.40;;;;;;;8.78;81.96;99006.73;1632527;87;21197;-70
2021/04/15 21:29:18;;;;;;;13.90;9.88;;;;;;;8.78;82.06;99005.36;1653827;84;21677;-71
2021/04/15 21:31:47;;;;;;;16.02;10.90;;;;;;;8.80;82.28;99004.48;1729432;82;21154;-70
2021/04/15 21:34:21;;;;;;;15.05;9.95;;;;;;;8.78;82.51;98998.48;1728808;82;21608;-71
2021/04/15 21:37:04;;;;;;;13.55;9.78;;;;;;;8.74;82.69;98992.27;1700531;82;21626;-71
2021/04/15 21:39:33;;;;;;;19.25;10.93;;;;;;;8.72;82.86;98993.70;1703509;82;21182;-71
2021/04/15 21:42:05;;;;;;;14.70;10.60;;;;;;;8.70;83.09;98991.28;1697007;82;21335;-70
2021/04/15 21:44:39;;;;;;;14.98;9.00;;;;;;;8.74;83.25;98992.82;1724576;81;21153;-70
2021/04/15 21:47:13;;;;;;;15.80;8.43;;;;;;;8.69;83.33;98992.42;1707727;82;21127;-71
2021/04/15 21:49:48;;;;;;;11.57;8.35;;;;;;;8.64;83.63;98990.64;1715516;82;21119;-73
2021/04/15 21:52:20;;;;;;;11.73;7.75;;;;;;;8.58;83.90;98992.48;1725668;82;21109;-72
2021/04/15 21:54:51;;;;;;;19.73;9.80;;;;;;;8.57;84.09;98993.04;1700290;82;21338;-75
2021/04/15 21:57:19;;;;;;;12.78;8.55;;;;;;;8.57;84.08;98991.66;1729246;82;21162;-71
2021/04/15 22:00:13;;;;;;;12.65;9.18;;;;;;;8.55;84.18;98989.80;1707943;82;21245;-73
2021/04/15 22:02:51;;;;;;;11.15;7.83;;;;;;;8.51;84.62;98991.55;1696657;82;21138;-72
2021/04/15 22:05:26;;;;;;;13.90;8.78;;;;;;;8.40;84.77;98986.91;1697746;82;21637;-71
2021/04/15 22:08:08;;;;;;;15.65;9.95;;;;;;;8.36;85.06;98987.31;1700326;82;21389;-73
2021/04/15 22:10:42;;;;;;;15.85;8.95;;;;;;;8.33;85.52;98985.17;1702783;82;21170;-72
2021/04/15 22:13:13;;;;;;;12.73;9.10;;;;;;;8.29;85.70;98985.00;1729775;82;21143;-70
2021/04/15 22:15:42;;;;;;;14.38;9.85;;;;;;;8.30;85.80;98984.44;1706536;82;21158;-71
2021/04/15 22:18:15;;;;;;;16.07;8.78;;;;;;;8.34;85.99;98975.83;1713666;82;21139;-71
2021/04/15 22:20:49;;;;;;;13.68;9.25;;;;;;;8.32;85.93;98973.96;1710023;82;21612;-69
2021/04/15 22:23:22;;;;;;;13.10;9.23;;;;;;;8.31;85.96;98973.73;1718286;82;21199;-71
